sensor_id;sensor_type;location;lat;lon;timestamp;temperature;humidity
22426;DHT22;11380;50.822;15.790;2022-08-21T00:04:35;16.90;99.90
22426;DHT22;11380;50.822;15.790;2022-08-21T00:09:42;16.80;99.90
22426;DHT22;11380;50.822;15.790;2022-08-21T00:14:48;16.80;99.90
22426;DHT22;11380;50.822;15.790;2022-08-21T00:19:55;16.80;99.90
22426;DHT22;11380;50.822;15.790;2022-08-21T00:25:01;16.80;99.90
22426;DHT22;11380;50.822;15.790;2022-08-21T00:30:07;16.60;99.90
22426;DHT22;11380;50.822;15.790;2022-08-21T00:35:16;16.80;99.90
22426;DHT22;11380;50.822;15.790;2022-08-21T00:45:48;17.10;99.90
22426;DHT22;11380;50.822;15.790;2022-08-21T00:50:57;17.00;99.90
22426;DHT22;11380;50.822;15.790;2022-08-21T00:56:03;16.90;99.90
22426;DHT22;11380;50.822;15.790;2022-08-21T01:01:10;16.90;99.90
22426;DHT22;11380;50.822;15.790;2022-08-21T01:06:15;16.70;99.90
22426;DHT22;11380;50.822;15.790;2022-08-21T01:11:20;16.70;99.90
22426;DHT22;11380;50.822;15.790;2022-08-21T01:16:25;16.70;99.90
22426;DHT22;11380;50.822;15.790;2022-08-21T01:21:31;16.60;99.90
22426;DHT22;11380;50.822;15.790;2022-08-21T01:26:37;16.60;99.90
22426;DHT22;11380;50.822;15.790;2022-08-21T01:31:44;16.80;99.90
22426;DHT22;11380;50.822;15.790;2022-08-21T01:36:50;16.60;99.90
22426;DHT22;11380;50.822;15.790;2022-08-21T01:41:56;16.60;99.90
22426;DHT22;11380;50.822;15.790;2022-08-21T01:47:05;16.80;99.90
22426;DHT22;11380;50.822;15.790;2022-08-21T01:52:13;16.80;99.90
22426;DHT22;11380;50.822;15.790;2022-08-21T01:57:19;16.60;99.90
22426;DHT22;11380;50.822;15.790;2022-08-21T02:02:26;16.60;99.90
22426;DHT22;11380;50.822;15.790;2022-08-21T02:07:38;16.80;99.90
22426;DHT22;11380;50.822;15.790;2022-08-21T02:12:44;16.70;99.90
22426;DHT22;11380;50.822;15.790;2022-08-21T02:17:52;16.90;99.90
22426;DHT22;11380;50.822;15.790;2022-08-21T02:22:59;17.00;99.90
22426;DHT22;11380;50.822;15.790;2022-08-21T02:28:07;17.00;99.90
22426;DHT22;11380;50.822;15.790;2022-08-21T02:33:14;17.00;99.90
22426;DHT22;11380;50.822;15.790;2022-08-21T02:38:25;16.80;99.90
22426;DHT22;11380;50.822;15.790;2022-08-21T02:43:30;16.60;99.90
22426;DHT22;11380;50.822;15.790;2022-08-21T02:48:37;16.50;99.90
22426;DHT22;11380;50.822;15.790;2022-08-21T02:53:44;16.50;99.90
22426;DHT22;11380;50.822;15.790;2022-08-21T02:58:50;16.60;99.90
22426;DHT22;11380;50.822;15.790;2022-08-21T03:03:57;16.60;99.90
22426;DHT22;11380;50.822;15.790;2022-08-21T03:09:03;16.50;99.90
22426;DHT22;11380;50.822;15.790;2022-08-21T03:14:10;16.40;99.90
22426;DHT22;11380;50.822;15.790;2022-08-21T03:19:15;16.40;99.90
22426;DHT22;11380;50.822;15.790;2022-08-21T03:24:20;16.30;99.90
22426;DHT22;11380;50.822;15.790;2022-08-21T03:29:26;16.20;99.90
22426;DHT22;11380;50.822;15.790;2022-08-21T03:34:31;16.20;99.90
22426;DHT22;11380;50.822;15.790;2022-08-21T03:39:36;16.20;99.90
22426;DHT22;11380;50.822;15.790;2022-08-21T03:44:42;16.10;99.90
22426;DHT22;11380;50.822;15.790;2022-08-21T03:49:49;16.10;99.90
22426;DHT22;11380;50.822;15.790;2022-08-21T03:54:54;16.10;99.90
22426;DHT22;11380;50.822;15.790;2022-08-21T03:59:59;16.20;99.90
22426;DHT22;11380;50.822;15.790;2022-08-21T04:05:05;16.30;99.90
22426;DHT22;11380;50.822;15.790;2022-08-21T04:10:11;16.40;99.90
22426;DHT22;11380;50.822;15.790;2022-08-21T04:15:16;16.40;99.90
22426;DHT22;11380;50.822;15.790;2022-08-21T04:20:22;16.40;99.90
22426;DHT22;11380;50.822;15.790;2022-08-21T04:25:28;16.40;99.90
22426;DHT22;11380;50.822;15.790;2022-08-21T04:30:33;16.50;99.90
22426;DHT22;11380;50.822;15.790;2022-08-21T04:35:39;16.30;99.90
22426;DHT22;11380;50.822;15.790;2022-08-21T04:40:45;16.30;99.90
22426;DHT22;11380;50.822;15.790;2022-08-21T04:45:51;16.20;99.90
22426;DHT22;11380;50.822;15.790;2022-08-21T04:56:18;16.10;99.90
22426;DHT22;11380;50.822;15.790;2022-08-21T05:01:20;16.20;99.90
22426;DHT22;11380;50.822;15.790;2022-08-21T05:06:28;16.20;99.90
22426;DHT22;11380;50.822;15.790;2022-08-21T05:11:36;16.10;99.90
22426;DHT22;11380;50.822;15.790;2022-08-21T05:16:41;16.00;99.90
22426;DHT22;11380;50.822;15.790;2022-08-21T05:21:48;16.00;99.90
22426;DHT22;11380;50.822;15.790;2022-08-21T05:26:53;16.00;99.90
22426;DHT22;11380;50.822;15.790;2022-08-21T05:31:58;16.00;99.90
22426;DHT22;11380;50.822;15.790;2022-08-21T05:37:03;16.00;99.90
22426;DHT22;11380;50.822;15.790;2022-08-21T05:42:10;16.00;99.90
22426;DHT22;11380;50.822;15.790;2022-08-21T05:47:15;15.90;99.90
22426;DHT22;11380;50.822;15.790;2022-08-21T05:52:21;15.90;99.90
22426;DHT22;11380;50.822;15.790;2022-08-21T05:57:26;16.00;99.90
22426;DHT22;11380;50.822;15.790;2022-08-21T06:02:32;16.00;99.90
22426;DHT22;11380;50.822;15.790;2022-08-21T06:07:37;15.90;99.90
22426;DHT22;11380;50.822;15.790;2022-08-21T06:12:42;15.90;99.90
22426;DHT22;11380;50.822;15.790;2022-08-21T06:17:47;16.00;99.90
22426;DHT22;11380;50.822;15.790;2022-08-21T06:22:52;16.00;99.90
22426;DHT22;11380;50.822;15.790;2022-08-21T06:28:08;15.90;99.90
22426;DHT22;11380;50.822;15.790;2022-08-21T06:33:14;15.90;99.90
22426;DHT22;11380;50.822;15.790;2022-08-21T06:38:21;15.70;99.90
22426;DHT22;11380;50.822;15.790;2022-08-21T06:43:26;15.80;99.90
22426;DHT22;11380;50.822;15.790;2022-08-21T06:48:34;15.70;99.90
22426;DHT22;11380;50.822;15.790;2022-08-21T06:53:39;15.70;99.90
22426;DHT22;11380;50.822;15.790;2022-08-21T06:58:45;15.70;99.90
22426;DHT22;11380;50.822;15.790;2022-08-21T07:03:51;15.70;99.90
22426;DHT22;11380;50.822;15.790;2022-08-21T07:08:57;15.70;99.90
22426;DHT22;11380;50.822;15.790;2022-08-21T07:14:03;15.60;99.90
22426;DHT22;11380;50.822;15.790;2022-08-21T07:19:08;15.50;99.90
22426;DHT22;11380;50.822;15.790;2022-08-21T07:24:14;15.50;99.90
22426;DHT22;11380;50.822;15.790;2022-08-21T07:29:19;15.50;99.90
22426;DHT22;11380;50.822;15.790;2022-08-21T07:34:25;15.50;99.90
22426;DHT22;11380;50.822;15.790;2022-08-21T07:39:30;15.60;99.90
22426;DHT22;11380;50.822;15.790;2022-08-21T07:44:36;15.50;99.90
22426;DHT22;11380;50.822;15.790;2022-08-21T07:49:42;15.50;99.90
22426;DHT22;11380;50.822;15.790;2022-08-21T07:54:47;15.50;99.90
22426;DHT22;11380;50.822;15.790;2022-08-21T07:59:53;15.60;99.90
22426;DHT22;11380;50.822;15.790;2022-08-21T08:05:02;15.60;99.90
22426;DHT22;11380;50.822;15.790;2022-08-21T08:10:08;15.60;99.90
22426;DHT22;11380;50.822;15.790;2022-08-21T08:15:18;15.60;99.90
22426;DHT22;11380;50.822;15.790;2022-08-21T08:20:24;15.60;99.90
22426;DHT22;11380;50.822;15.790;2022-08-21T08:25:31;15.70;99.90
22426;DHT22;11380;50.822;15.790;2022-08-21T08:30:38;15.70;99.90
22426;DHT22;11380;50.822;15.790;2022-08-21T08:35:46;16.00;99.90
22426;DHT22;11380;50.822;15.790;2022-08-21T08:41:05;16.00;99.90
22426;DHT22;11380;50.822;15.790;2022-08-21T08:46:12;16.10;99.90
22426;DHT22;11380;50.822;15.790;2022-08-21T08:51:46;16.60;99.90
22426;DHT22;11380;50.822;15.790;2022-08-21T08:56:53;16.40;99.90
22426;DHT22;11380;50.822;15.790;2022-08-21T09:02:01;16.40;99.90
22426;DHT22;11380;50.822;15.790;2022-08-21T09:07:19;16.60;99.90
22426;DHT22;11380;50.822;15.790;2022-08-21T09:12:42;16.40;99.90
22426;DHT22;11380;50.822;15.790;2022-08-21T09:28:11;17.00;99.90
22426;DHT22;11380;50.822;15.790;2022-08-21T09:33:20;17.10;99.90
22426;DHT22;11380;50.822;15.790;2022-08-21T09:38:32;16.90;99.90
22426;DHT22;11380;50.822;15.790;2022-08-21T09:43:38;17.00;99.90
22426;DHT22;11380;50.822;15.790;2022-08-21T09:48:49;17.30;99.90
22426;DHT22;11380;50.822;15.790;2022-08-21T09:54:10;17.50;99.90
22426;DHT22;11380;50.822;15.790;2022-08-21T10:04:31;17.00;99.90
22426;DHT22;11380;50.822;15.790;2022-08-21T10:09:37;17.20;99.90
22426;DHT22;11380;50.822;15.790;2022-08-21T10:14:50;17.40;99.90
22426;DHT22;11380;50.822;15.790;2022-08-21T10:20:01;17.70;99.90
22426;DHT22;11380;50.822;15.790;2022-08-21T10:25:19;17.50;99.90
22426;DHT22;11380;50.822;15.790;2022-08-21T10:36:03;18.10;99.90
22426;DHT22;11380;50.822;15.790;2022-08-21T10:41:13;18.40;99.90
22426;DHT22;11380;50.822;15.790;2022-08-21T10:46:46;18.70;99.90
22426;DHT22;11380;50.822;15.790;2022-08-21T10:57:21;19.00;7.70
22426;DHT22;11380;50.822;15.790;2022-08-21T11:02:33;18.90;1.00
22426;DHT22;11380;50.822;15.790;2022-08-21T11:07:57;18.60;99.90
22426;DHT22;11380;50.822;15.790;2022-08-21T11:13:05;19.10;1.00
22426;DHT22;11380;50.822;15.790;2022-08-21T11:18:26;18.80;99.90
22426;DHT22;11380;50.822;15.790;2022-08-21T11:23:37;18.90;1.00
22426;DHT22;11380;50.822;15.790;2022-08-21T11:29:02;18.90;1.00
22426;DHT22;11380;50.822;15.790;2022-08-21T11:50:14;19.30;1.00
22426;DHT22;11380;50.822;15.790;2022-08-21T12:00:45;19.40;1.00
22426;DHT22;11380;50.822;15.790;2022-08-21T12:06:05;19.40;1.00
22426;DHT22;11380;50.822;15.790;2022-08-21T12:16:41;19.50;1.00
22426;DHT22;11380;50.822;15.790;2022-08-21T12:21:58;19.30;1.00
22426;DHT22;11380;50.822;15.790;2022-08-21T12:32:44;18.60;1.00
22426;DHT22;11380;50.822;15.790;2022-08-21T12:38:23;18.80;1.00
22426;DHT22;11380;50.822;15.790;2022-08-21T12:43:13;18.60;1.00
22426;DHT22;11380;50.822;15.790;2022-08-21T12:53:53;19.00;1.00
22426;DHT22;11380;50.822;15.790;2022-08-21T12:59:05;18.40;1.00
22426;DHT22;11380;50.822;15.790;2022-08-21T13:04:31;18.20;1.00
22426;DHT22;11380;50.822;15.790;2022-08-21T13:09:28;18.30;1.00
22426;DHT22;11380;50.822;15.790;2022-08-21T13:14:44;18.90;1.00
22426;DHT22;11380;50.822;15.790;2022-08-21T13:19:55;18.20;1.00
22426;DHT22;11380;50.822;15.790;2022-08-21T13:25:01;17.80;1.00
22426;DHT22;11380;50.822;15.790;2022-08-21T13:30:13;18.00;1.00
22426;DHT22;11380;50.822;15.790;2022-08-21T13:35:27;18.00;1.00
22426;DHT22;11380;50.822;15.790;2022-08-21T13:40:49;17.90;1.00
22426;DHT22;11380;50.822;15.790;2022-08-21T13:45:54;18.30;1.00
22426;DHT22;11380;50.822;15.790;2022-08-21T13:51:02;18.20;1.00
22426;DHT22;11380;50.822;15.790;2022-08-21T13:56:09;18.50;1.00
22426;DHT22;11380;50.822;15.790;2022-08-21T14:01:28;18.80;1.00
22426;DHT22;11380;50.822;15.790;2022-08-21T14:06:36;18.80;1.00
22426;DHT22;11380;50.822;15.790;2022-08-21T14:11:42;18.80;1.00
22426;DHT22;11380;50.822;15.790;2022-08-21T14:16:56;18.80;1.00
22426;DHT22;11380;50.822;15.790;2022-08-21T14:27:17;18.70;1.00
22426;DHT22;11380;50.822;15.790;2022-08-21T14:32:27;18.60;1.00
22426;DHT22;11380;50.822;15.790;2022-08-21T14:37:36;18.10;1.00
22426;DHT22;11380;50.822;15.790;2022-08-21T14:42:42;18.00;1.00
22426;DHT22;11380;50.822;15.790;2022-08-21T14:47:49;17.70;1.00
22426;DHT22;11380;50.822;15.790;2022-08-21T14:52:54;17.80;1.00
22426;DHT22;11380;50.822;15.790;2022-08-21T14:58:00;17.70;1.00
22426;DHT22;11380;50.822;15.790;2022-08-21T15:03:07;17.50;1.00
22426;DHT22;11380;50.822;15.790;2022-08-21T15:08:14;17.70;1.00
22426;DHT22;11380;50.822;15.790;2022-08-21T15:13:21;17.80;1.00
22426;DHT22;11380;50.822;15.790;2022-08-21T15:18:28;18.10;1.00
22426;DHT22;11380;50.822;15.790;2022-08-21T15:23:33;18.10;1.00
22426;DHT22;11380;50.822;15.790;2022-08-21T15:28:40;18.00;1.00
22426;DHT22;11380;50.822;15.790;2022-08-21T15:33:46;17.90;1.00
22426;DHT22;11380;50.822;15.790;2022-08-21T15:38:53;17.90;5.60
22426;DHT22;11380;50.822;15.790;2022-08-21T15:43:58;17.80;1.00
22426;DHT22;11380;50.822;15.790;2022-08-21T15:49:04;17.30;99.90
22426;DHT22;11380;50.822;15.790;2022-08-21T15:54:10;17.10;99.90
22426;DHT22;11380;50.822;15.790;2022-08-21T15:59:19;17.30;99.90
22426;DHT22;11380;50.822;15.790;2022-08-21T16:04:27;17.50;99.90
22426;DHT22;11380;50.822;15.790;2022-08-21T16:09:36;17.40;99.90
22426;DHT22;11380;50.822;15.790;2022-08-21T16:14:42;17.30;99.90
22426;DHT22;11380;50.822;15.790;2022-08-21T16:19:48;17.30;99.90
22426;DHT22;11380;50.822;15.790;2022-08-21T16:24:53;17.40;99.90
22426;DHT22;11380;50.822;15.790;2022-08-21T16:29:59;17.50;99.90
22426;DHT22;11380;50.822;15.790;2022-08-21T16:35:05;17.50;99.90
22426;DHT22;11380;50.822;15.790;2022-08-21T16:40:11;17.70;99.90
22426;DHT22;11380;50.822;15.790;2022-08-21T16:45:18;17.70;99.90
22426;DHT22;11380;50.822;15.790;2022-08-21T16:50:26;17.60;99.90
22426;DHT22;11380;50.822;15.790;2022-08-21T16:55:34;17.60;99.90
22426;DHT22;11380;50.822;15.790;2022-08-21T17:00:40;17.50;99.90
22426;DHT22;11380;50.822;15.790;2022-08-21T17:05:46;17.50;99.90
22426;DHT22;11380;50.822;15.790;2022-08-21T17:10:55;17.40;99.90
22426;DHT22;11380;50.822;15.790;2022-08-21T17:16:00;17.30;99.90
22426;DHT22;11380;50.822;15.790;2022-08-21T17:21:06;17.40;99.90
22426;DHT22;11380;50.822;15.790;2022-08-21T17:26:13;17.30;99.90
22426;DHT22;11380;50.822;15.790;2022-08-21T17:31:19;17.30;99.90
22426;DHT22;11380;50.822;15.790;2022-08-21T17:36:28;17.40;99.90
22426;DHT22;11380;50.822;15.790;2022-08-21T17:41:34;17.30;99.90
22426;DHT22;11380;50.822;15.790;2022-08-21T17:46:39;17.40;99.90
22426;DHT22;11380;50.822;15.790;2022-08-21T17:51:46;17.40;99.90
22426;DHT22;11380;50.822;15.790;2022-08-21T17:56:53;17.40;99.90
22426;DHT22;11380;50.822;15.790;2022-08-21T18:01:59;17.60;99.90
22426;DHT22;11380;50.822;15.790;2022-08-21T18:07:07;17.70;99.90
22426;DHT22;11380;50.822;15.790;2022-08-21T18:12:15;17.70;99.90
22426;DHT22;11380;50.822;15.790;2022-08-21T18:17:22;17.70;99.90
22426;DHT22;11380;50.822;15.790;2022-08-21T18:22:27;17.70;99.90
22426;DHT22;11380;50.822;15.790;2022-08-21T18:27:35;17.50;99.90
22426;DHT22;11380;50.822;15.790;2022-08-21T18:32:42;17.40;99.90
22426;DHT22;11380;50.822;15.790;2022-08-21T18:37:48;17.10;99.90
22426;DHT22;11380;50.822;15.790;2022-08-21T18:42:54;17.10;99.90
22426;DHT22;11380;50.822;15.790;2022-08-21T18:48:00;17.00;99.90
22426;DHT22;11380;50.822;15.790;2022-08-21T18:53:08;17.00;99.90
22426;DHT22;11380;50.822;15.790;2022-08-21T18:58:15;17.00;99.90
22426;DHT22;11380;50.822;15.790;2022-08-21T19:03:22;16.90;99.90
22426;DHT22;11380;50.822;15.790;2022-08-21T19:08:28;16.80;99.90
22426;DHT22;11380;50.822;15.790;2022-08-21T19:13:37;16.80;99.90
22426;DHT22;11380;50.822;15.790;2022-08-21T19:18:44;16.70;99.90
22426;DHT22;11380;50.822;15.790;2022-08-21T19:23:50;16.60;99.90
22426;DHT22;11380;50.822;15.790;2022-08-21T19:28:59;16.60;99.90
22426;DHT22;11380;50.822;15.790;2022-08-21T19:39:19;16.50;99.90
22426;DHT22;11380;50.822;15.790;2022-08-21T19:44:28;16.60;99.90
22426;DHT22;11380;50.822;15.790;2022-08-21T19:49:37;16.60;99.90
22426;DHT22;11380;50.822;15.790;2022-08-21T19:54:46;16.50;99.90
22426;DHT22;11380;50.822;15.790;2022-08-21T19:59:54;16.40;99.90
22426;DHT22;11380;50.822;15.790;2022-08-21T20:05:04;16.40;99.90
22426;DHT22;11380;50.822;15.790;2022-08-21T20:10:12;16.30;99.90
22426;DHT22;11380;50.822;15.790;2022-08-21T20:15:20;16.30;99.90
22426;DHT22;11380;50.822;15.790;2022-08-21T20:20:28;16.20;99.90
22426;DHT22;11380;50.822;15.790;2022-08-21T20:25:35;16.20;99.90
22426;DHT22;11380;50.822;15.790;2022-08-21T20:30:42;16.20;99.90
22426;DHT22;11380;50.822;15.790;2022-08-21T20:35:50;16.10;99.90
22426;DHT22;11380;50.822;15.790;2022-08-21T20:40:59;16.20;99.90
22426;DHT22;11380;50.822;15.790;2022-08-21T20:46:07;16.10;99.90
22426;DHT22;11380;50.822;15.790;2022-08-21T20:51:36;16.10;99.90
22426;DHT22;11380;50.822;15.790;2022-08-21T20:56:55;16.10;99.90
22426;DHT22;11380;50.822;15.790;2022-08-21T21:01:54;16.00;99.90
22426;DHT22;11380;50.822;15.790;2022-08-21T21:07:00;16.10;99.90
22426;DHT22;11380;50.822;15.790;2022-08-21T21:12:13;16.00;99.90
22426;DHT22;11380;50.822;15.790;2022-08-21T21:17:27;16.00;99.90
22426;DHT22;11380;50.822;15.790;2022-08-21T21:22:39;16.10;99.90
22426;DHT22;11380;50.822;15.790;2022-08-21T21:27:43;16.10;99.90
22426;DHT22;11380;50.822;15.790;2022-08-21T21:32:50;16.00;99.90
22426;DHT22;11380;50.822;15.790;2022-08-21T21:37:59;16.00;99.90
22426;DHT22;11380;50.822;15.790;2022-08-21T21:43:30;16.00;99.90
22426;DHT22;11380;50.822;15.790;2022-08-21T21:48:53;16.10;99.90
22426;DHT22;11380;50.822;15.790;2022-08-21T21:54:28;16.00;99.90
22426;DHT22;11380;50.822;15.790;2022-08-21T21:59:59;16.10;99.90
22426;DHT22;11380;50.822;15.790;2022-08-21T22:10:25;15.80;99.90
22426;DHT22;11380;50.822;15.790;2022-08-21T22:15:29;15.90;99.90
22426;DHT22;11380;50.822;15.790;2022-08-21T22:20:44;15.70;99.90
22426;DHT22;11380;50.822;15.790;2022-08-21T22:25:51;15.70;99.90
22426;DHT22;11380;50.822;15.790;2022-08-21T22:36:29;15.80;99.90
22426;DHT22;11380;50.822;15.790;2022-08-21T22:41:39;15.80;99.90
22426;DHT22;11380;50.822;15.790;2022-08-21T22:46:54;16.10;99.90
22426;DHT22;11380;50.822;15.790;2022-08-21T22:52:20;15.90;99.90
22426;DHT22;11380;50.822;15.790;2022-08-21T22:57:31;16.10;99.90
22426;DHT22;11380;50.822;15.790;2022-08-21T23:02:43;16.10;99.90
22426;DHT22;11380;50.822;15.790;2022-08-21T23:07:49;16.00;99.90
22426;DHT22;11380;50.822;15.790;2022-08-21T23:13:11;15.80;99.90
22426;DHT22;11380;50.822;15.790;2022-08-21T23:18:19;15.80;99.90
22426;DHT22;11380;50.822;15.790;2022-08-21T23:23:27;15.90;99.90
22426;DHT22;11380;50.822;15.790;2022-08-21T23:28:46;15.90;99.90
22426;DHT22;11380;50.822;15.790;2022-08-21T23:34:07;15.90;99.90
22426;DHT22;11380;50.822;15.790;2022-08-21T23:44:53;15.70;99.90
22426;DHT22;11380;50.822;15.790;2022-08-21T23:50:02;15.60;99.90
22426;DHT22;11380;50.822;15.790;2022-08-21T23:55:39;15.40;99.90
